createdAt,value
2018-06-08T00:00:07.142Z,0.00
2018-06-08T00:01:07.085Z,0.00
2018-06-08T00:02:07.112Z,0.00
2018-06-08T00:03:07.081Z,0.00
2018-06-08T00:04:06.709Z,0.00
2018-06-08T00:05:07.091Z,0.00
2018-06-08T00:06:07.072Z,0.00
2018-06-08T00:07:07.114Z,0.00
2018-06-08T00:08:07.071Z,0.00
2018-06-08T00:09:07.086Z,0.00
2018-06-08T00:10:07.086Z,0.00
2018-06-08T00:11:07.096Z,0.00
2018-06-08T00:12:07.067Z,0.00
2018-06-08T00:13:07.147Z,0.00
2018-06-08T00:14:07.102Z,0.00
2018-06-08T00:15:07.124Z,0.00
2018-06-08T00:16:07.105Z,0.00
2018-06-08T00:17:07.108Z,0.00
2018-06-08T00:18:07.106Z,0.00
2018-06-08T00:19:07.122Z,0.00
2018-06-08T00:20:07.207Z,0.00
2018-06-08T00:21:07.125Z,0.00
2018-06-08T00:22:07.224Z,0.00
2018-06-08T00:23:08.977Z,0.00
2018-06-08T00:24:07.203Z,0.00
2018-06-08T00:25:06.812Z,0.00
2018-06-08T00:26:07.210Z,0.00
2018-06-08T00:27:07.238Z,0.00
2018-06-08T00:28:07.196Z,0.00
2018-06-08T00:29:07.187Z,0.00
2018-06-08T00:30:07.172Z,0.00
2018-06-08T00:31:07.270Z,0.00
2018-06-08T00:32:07.290Z,0.00
2018-06-08T00:33:07.139Z,0.00
2018-06-08T00:34:07.141Z,0.00
2018-06-08T00:35:07.138Z,0.00
2018-06-08T00:36:07.144Z,0.00
2018-06-08T00:37:07.800Z,0.00
2018-06-08T00:38:07.130Z,0.00
2018-06-08T00:39:07.166Z,0.00
2018-06-08T00:40:07.095Z,0.00
2018-06-08T00:41:06.820Z,0.00
2018-06-08T00:42:07.148Z,0.00
2018-06-08T00:43:07.167Z,0.00
2018-06-08T00:44:07.131Z,0.00
2018-06-08T00:45:07.205Z,0.00
2018-06-08T00:46:07.161Z,0.00
2018-06-08T00:47:07.196Z,0.00
2018-06-08T00:48:07.290Z,0.00
2018-06-08T00:49:07.259Z,0.00
2018-06-08T00:50:07.245Z,0.00
2018-06-08T00:51:09.071Z,0.00
2018-06-08T00:52:09.086Z,0.00
2018-06-08T00:53:07.322Z,0.00
2018-06-08T00:54:07.241Z,0.00
2018-06-08T00:55:07.398Z,0.00
2018-06-08T00:56:07.298Z,0.00
2018-06-08T00:57:07.257Z,0.00
2018-06-08T00:59:07.300Z,0.00
2018-06-08T01:00:07.193Z,0.00
2018-06-08T01:01:07.166Z,0.00
2018-06-08T01:02:07.164Z,0.00
2018-06-08T01:03:07.159Z,0.00
2018-06-08T01:04:07.228Z,0.00
2018-06-08T01:05:07.237Z,0.00
2018-06-08T01:06:07.230Z,0.00
2018-06-08T01:07:07.219Z,0.00
2018-06-08T01:08:07.221Z,0.00
2018-06-08T01:09:07.185Z,0.00
2018-06-08T01:10:07.209Z,0.00
2018-06-08T01:11:07.187Z,0.00
2018-06-08T01:12:07.224Z,0.00
2018-06-08T01:13:07.237Z,0.00
2018-06-08T01:14:07.274Z,0.00
2018-06-08T01:15:07.404Z,0.00
2018-06-08T01:16:07.259Z,0.00
2018-06-08T01:17:06.914Z,0.00
2018-06-08T01:18:07.416Z,0.00
2018-06-08T01:19:07.453Z,0.00
2018-06-08T01:20:07.461Z,0.00
2018-06-08T01:21:07.820Z,0.00
2018-06-08T01:22:07.383Z,0.00
2018-06-08T01:23:07.440Z,0.00
2018-06-08T01:24:07.426Z,0.00
2018-06-08T01:25:09.210Z,0.00
2018-06-08T01:26:07.429Z,0.00
2018-06-08T01:27:07.402Z,0.00
2018-06-08T01:28:07.317Z,0.00
2018-06-08T01:29:09.103Z,0.00
2018-06-08T01:30:07.338Z,0.00
2018-06-08T01:31:07.344Z,0.00
2018-06-08T01:32:07.320Z,0.00
2018-06-08T01:33:07.324Z,0.00
2018-06-08T01:34:07.304Z,0.00
2018-06-08T01:35:07.266Z,0.00
2018-06-08T01:36:07.409Z,0.00
2018-06-08T01:37:07.362Z,0.00
2018-06-08T01:38:07.369Z,0.00
2018-06-08T01:39:07.323Z,0.00
2018-06-08T01:40:07.678Z,0.00
2018-06-08T01:41:07.424Z,0.00
2018-06-08T01:42:07.413Z,0.00
2018-06-08T01:43:07.454Z,0.00
2018-06-08T01:44:07.417Z,0.00
2018-06-08T01:45:07.390Z,0.00
2018-06-08T01:46:07.381Z,0.00
2018-06-08T01:47:07.457Z,0.00
2018-06-08T01:48:07.482Z,0.00
2018-06-08T01:49:07.370Z,0.00
2018-06-08T01:50:07.530Z,0.00
2018-06-08T01:51:07.685Z,0.00
2018-06-08T01:52:07.696Z,0.00
2018-06-08T01:53:07.722Z,0.00
2018-06-08T01:54:09.472Z,0.00
2018-06-08T01:55:07.615Z,0.00
2018-06-08T01:56:07.583Z,0.00
2018-06-08T01:57:07.601Z,0.00
2018-06-08T01:58:07.625Z,0.00
2018-06-08T01:59:07.652Z,0.00
2018-06-08T02:00:07.708Z,0.00
2018-06-08T02:01:07.634Z,0.00
2018-06-08T02:02:07.655Z,0.00
2018-06-08T02:03:07.651Z,0.00
2018-06-08T02:04:09.472Z,0.00
2018-06-08T02:05:07.625Z,0.00
2018-06-08T02:06:07.652Z,0.00
2018-06-08T02:07:07.649Z,0.00
2018-06-08T02:08:07.680Z,0.00
2018-06-08T02:09:07.666Z,0.00
2018-06-08T02:10:07.677Z,0.00
2018-06-08T02:11:07.670Z,0.00
2018-06-08T02:12:07.629Z,0.00
2018-06-08T02:13:07.678Z,0.00
2018-06-08T02:14:07.692Z,0.00
2018-06-08T02:15:07.693Z,0.00
2018-06-08T02:17:07.691Z,0.00
2018-06-08T02:18:07.676Z,0.00
2018-06-08T02:19:07.668Z,0.00
2018-06-08T02:20:07.630Z,0.00
2018-06-08T02:21:07.660Z,0.00
2018-06-08T02:22:09.483Z,0.00
2018-06-08T02:23:07.547Z,0.00
2018-06-08T02:24:07.592Z,0.00
2018-06-08T02:25:07.677Z,0.00
2018-06-08T02:26:07.626Z,0.00
2018-06-08T02:27:07.660Z,0.00
2018-06-08T02:28:07.642Z,0.00
2018-06-08T02:29:07.631Z,0.00
2018-06-08T02:30:07.654Z,0.00
2018-06-08T02:31:07.620Z,0.00
2018-06-08T02:32:07.629Z,0.00
2018-06-08T02:33:07.640Z,0.00
2018-06-08T02:34:07.665Z,0.00
2018-06-08T02:35:07.700Z,0.00
2018-06-08T02:36:07.674Z,0.00
2018-06-08T02:37:07.675Z,0.00
2018-06-08T02:38:07.673Z,0.00
2018-06-08T02:39:07.692Z,4.00
2018-06-08T02:40:07.629Z,4.00
2018-06-08T02:41:07.685Z,0.00
2018-06-08T02:42:07.634Z,0.00
2018-06-08T02:43:07.660Z,0.00
2018-06-08T02:44:07.688Z,4.00
2018-06-08T02:45:07.717Z,4.00
2018-06-08T02:46:07.170Z,4.00
2018-06-08T02:47:07.655Z,4.00
2018-06-08T02:48:09.883Z,4.00
2018-06-08T02:49:07.665Z,4.00
2018-06-08T02:50:07.636Z,8.00
2018-06-08T02:51:07.635Z,8.00
2018-06-08T02:52:09.911Z,8.00
2018-06-08T02:53:07.654Z,4.00
2018-06-08T02:54:07.649Z,8.00
2018-06-08T02:55:07.651Z,8.00
2018-06-08T02:56:07.616Z,12.00
2018-06-08T02:57:13.651Z,8.00
2018-06-08T02:58:13.848Z,12.00
2018-06-08T02:59:07.663Z,12.00
2018-06-08T03:00:07.117Z,16.00
2018-06-08T03:01:07.692Z,20.00
2018-06-08T03:02:07.674Z,20.00
2018-06-08T03:03:07.659Z,20.00
2018-06-08T03:04:07.663Z,24.00
2018-06-08T03:05:07.708Z,28.00
2018-06-08T03:06:07.692Z,32.00
2018-06-08T03:07:09.528Z,32.00
2018-06-08T03:08:07.709Z,36.00
2018-06-08T03:09:07.702Z,36.00
2018-06-08T03:10:07.709Z,40.00
2018-06-08T03:11:07.696Z,44.00
2018-06-08T03:12:07.730Z,48.00
2018-06-08T03:13:07.715Z,48.00
2018-06-08T03:14:07.631Z,52.00
2018-06-08T03:15:07.688Z,60.00
2018-06-08T03:16:07.679Z,60.00
2018-06-08T03:17:07.674Z,64.00
2018-06-08T03:18:07.695Z,68.00
2018-06-08T03:19:07.766Z,72.00
2018-06-08T03:20:07.697Z,76.00
2018-06-08T03:21:07.685Z,80.00
2018-06-08T03:22:07.637Z,84.00
2018-06-08T03:23:07.201Z,92.00
2018-06-08T03:24:07.691Z,92.00
2018-06-08T03:25:07.699Z,100.00
2018-06-08T03:26:07.717Z,100.00
2018-06-08T03:27:07.693Z,108.00
2018-06-08T03:28:07.726Z,112.00
2018-06-08T03:29:07.691Z,120.00
2018-06-08T03:30:07.709Z,128.00
2018-06-08T03:31:07.677Z,132.00
2018-06-08T03:32:09.860Z,136.00
2018-06-08T03:33:07.710Z,140.00
2018-06-08T03:34:07.201Z,148.00
2018-06-08T03:35:07.735Z,156.00
2018-06-08T03:36:07.690Z,164.00
2018-06-08T03:37:07.720Z,172.00
2018-06-08T03:38:07.775Z,180.00
2018-06-08T03:39:07.712Z,192.00
2018-06-08T03:40:07.706Z,200.00
2018-06-08T03:41:07.243Z,208.00
2018-06-08T03:42:07.688Z,224.00
2018-06-08T03:43:07.683Z,232.00
2018-06-08T03:44:07.691Z,248.00
2018-06-08T03:45:07.685Z,264.00
2018-06-08T03:46:07.687Z,280.00
2018-06-08T03:47:07.681Z,296.00
2018-06-08T03:48:07.387Z,312.00
2018-06-08T03:49:07.658Z,324.00
2018-06-08T03:50:08.224Z,340.00
2018-06-08T03:51:07.702Z,356.00
2018-06-08T03:52:07.701Z,368.00
2018-06-08T03:53:09.720Z,384.00
2018-06-08T03:54:07.711Z,392.00
2018-06-08T03:55:07.924Z,404.00
2018-06-08T03:56:07.673Z,412.00
2018-06-08T03:57:07.902Z,424.00
2018-06-08T03:58:07.700Z,428.00
2018-06-08T03:59:07.270Z,432.00
2018-06-08T04:00:07.907Z,436.00
2018-06-08T04:01:07.906Z,444.00
2018-06-08T04:02:08.018Z,448.00
2018-06-08T04:03:07.907Z,448.00
2018-06-08T04:04:07.891Z,452.00
2018-06-08T04:05:07.895Z,456.00
2018-06-08T04:06:07.890Z,452.00
2018-06-08T04:07:07.912Z,452.00
2018-06-08T04:08:07.986Z,452.00
2018-06-08T04:09:07.388Z,452.00
2018-06-08T04:10:07.751Z,456.00
2018-06-08T04:11:07.686Z,460.00
2018-06-08T04:12:07.703Z,456.00
2018-06-08T04:13:07.932Z,460.00
2018-06-08T04:14:07.717Z,460.00
2018-06-08T04:15:07.699Z,460.00
2018-06-08T04:16:07.730Z,460.00
2018-06-08T04:17:07.782Z,456.00
2018-06-08T04:18:07.768Z,456.00
2018-06-08T04:19:07.675Z,456.00
2018-06-08T04:20:07.722Z,452.00
2018-06-08T04:21:07.755Z,444.00
2018-06-08T04:22:08.228Z,444.00
2018-06-08T04:23:07.993Z,436.00
2018-06-08T04:24:07.332Z,432.00
2018-06-08T04:25:07.758Z,420.00
2018-06-08T04:26:07.754Z,412.00
2018-06-08T04:27:07.362Z,396.00
2018-06-08T04:28:07.773Z,392.00
2018-06-08T04:29:07.769Z,392.00
2018-06-08T04:30:07.739Z,392.00
2018-06-08T04:31:07.759Z,396.00
2018-06-08T04:32:07.813Z,400.00
2018-06-08T04:33:07.782Z,404.00
2018-06-08T04:34:07.866Z,408.00
2018-06-08T04:35:07.837Z,416.00
2018-06-08T04:36:07.795Z,420.00
2018-06-08T04:37:07.732Z,420.00
2018-06-08T04:38:07.700Z,428.00
2018-06-08T04:39:07.640Z,436.00
2018-06-08T04:40:07.796Z,448.00
2018-06-08T04:41:07.715Z,460.00
2018-06-08T04:42:08.257Z,472.00
2018-06-08T04:43:08.243Z,480.00
2018-06-08T04:44:07.901Z,480.00
2018-06-08T04:45:07.922Z,476.00
2018-06-08T04:46:07.905Z,468.00
2018-06-08T04:47:07.923Z,468.00
2018-06-08T04:48:08.245Z,472.00
2018-06-08T04:49:07.383Z,476.00
2018-06-08T04:50:07.745Z,476.00
2018-06-08T04:51:07.724Z,480.00
2018-06-08T04:52:07.746Z,492.00
2018-06-08T04:53:07.809Z,504.00
2018-06-08T04:54:07.735Z,524.00
2018-06-08T04:55:07.760Z,548.00
2018-06-08T04:56:07.766Z,568.00
2018-06-08T04:57:07.734Z,592.00
2018-06-08T04:58:07.747Z,620.00
2018-06-08T04:59:07.745Z,644.00
2018-06-08T05:00:09.617Z,672.00
2018-06-08T05:01:07.506Z,692.00
2018-06-08T05:02:07.761Z,716.00
2018-06-08T05:03:07.860Z,740.00
2018-06-08T05:04:08.432Z,784.00
2018-06-08T05:05:07.416Z,860.00
2018-06-08T05:06:07.778Z,976.00
2018-06-08T05:07:07.912Z,1132.00
2018-06-08T05:08:08.020Z,1304.00
2018-06-08T05:09:08.248Z,1444.00
2018-06-08T05:10:07.931Z,1560.00
2018-06-08T05:11:07.788Z,1632.00
2018-06-08T05:12:08.268Z,1680.00
2018-06-08T05:13:07.805Z,1704.00
2018-06-08T05:14:07.792Z,1704.00
2018-06-08T05:15:08.033Z,1704.00
2018-06-08T05:16:08.255Z,1724.00
2018-06-08T05:17:07.966Z,1748.00
2018-06-08T05:18:08.253Z,1792.00
2018-06-08T05:19:07.966Z,1836.00
2018-06-08T05:20:07.886Z,1876.00
2018-06-08T05:21:08.168Z,1896.00
2018-06-08T05:22:08.271Z,1896.00
2018-06-08T05:23:09.770Z,1860.00
2018-06-08T05:24:07.920Z,1832.00
2018-06-08T05:25:07.973Z,1820.00
2018-06-08T05:26:07.970Z,1808.00
2018-06-08T05:27:07.942Z,1808.00
2018-06-08T05:28:08.271Z,1808.00
2018-06-08T05:29:07.975Z,1796.00
2018-06-08T05:30:08.299Z,1768.00
2018-06-08T05:31:08.408Z,1728.00
2018-06-08T05:32:07.974Z,1712.00
2018-06-08T05:33:07.949Z,1692.00
2018-06-08T05:34:14.472Z,1692.00
2018-06-08T05:35:14.284Z,1700.00
2018-06-08T05:36:07.547Z,1712.00
2018-06-08T05:37:08.061Z,1732.00
2018-06-08T05:38:08.468Z,1752.00
2018-06-08T05:39:07.763Z,1764.00
2018-06-08T05:40:07.895Z,1784.00
2018-06-08T05:41:08.368Z,1828.00
2018-06-08T05:42:08.000Z,1880.00
2018-06-08T05:43:07.929Z,1936.00
2018-06-08T05:44:07.938Z,1988.00
2018-06-08T05:45:07.923Z,2028.00
2018-06-08T05:46:08.283Z,2068.00
2018-06-08T05:47:09.994Z,2104.00
2018-06-08T05:48:07.971Z,2132.00
2018-06-08T05:49:08.232Z,2152.00
2018-06-08T05:50:08.285Z,2152.00
2018-06-08T05:51:07.959Z,2156.00
2018-06-08T05:52:07.929Z,2160.00
2018-06-08T05:53:07.874Z,2172.00
2018-06-08T05:54:07.938Z,2180.00
2018-06-08T05:55:08.452Z,2188.00
2018-06-08T05:56:08.212Z,2180.00
2018-06-08T05:57:07.979Z,2160.00
2018-06-08T05:58:08.042Z,2156.00
2018-06-08T05:59:08.521Z,2156.00
2018-06-08T06:00:08.261Z,2168.00
2018-06-08T06:01:07.977Z,2172.00
2018-06-08T06:02:07.974Z,2184.00
2018-06-08T06:03:08.446Z,2208.00
2018-06-08T06:04:07.935Z,2248.00
2018-06-08T06:05:07.982Z,2292.00
2018-06-08T06:06:10.033Z,2332.00
2018-06-08T06:07:07.941Z,2376.00
2018-06-08T06:08:07.969Z,2416.00
2018-06-08T06:09:08.352Z,2448.00
2018-06-08T06:10:07.570Z,2480.00
2018-06-08T06:11:08.479Z,2508.00
2018-06-08T06:12:10.107Z,2528.00
2018-06-08T06:13:08.237Z,2544.00
2018-06-08T06:14:07.958Z,2548.00
2018-06-08T06:15:08.582Z,2544.00
2018-06-08T06:16:07.783Z,2548.00
2018-06-08T06:17:08.172Z,2532.00
2018-06-08T06:18:08.464Z,2500.00
2018-06-08T06:19:08.357Z,2460.00
2018-06-08T06:20:07.904Z,2404.00
2018-06-08T06:21:08.048Z,2344.00
2018-06-08T06:22:08.337Z,2276.00
2018-06-08T06:23:08.096Z,2204.00
2018-06-08T06:24:08.442Z,2148.00
2018-06-08T06:25:09.986Z,2096.00
2018-06-08T06:26:07.994Z,2052.00
2018-06-08T06:27:08.237Z,2016.00
2018-06-08T06:28:08.260Z,1988.00
2018-06-08T06:29:08.521Z,1964.00
2018-06-08T06:30:08.266Z,1948.00
2018-06-08T06:31:08.292Z,1928.00
2018-06-08T06:32:08.790Z,1912.00
2018-06-08T06:33:07.951Z,1892.00
2018-06-08T06:34:08.487Z,1872.00
2018-06-08T06:35:08.447Z,1852.00
2018-06-08T06:36:08.528Z,1840.00
2018-06-08T06:37:08.046Z,1828.00
2018-06-08T06:38:08.468Z,1820.00
2018-06-08T06:39:08.014Z,1816.00
2018-06-08T06:40:08.982Z,1812.00
2018-06-08T06:41:08.454Z,1812.00
2018-06-08T06:42:08.465Z,1812.00
2018-06-08T06:43:10.099Z,1808.00
2018-06-08T06:44:08.801Z,1804.00
2018-06-08T06:45:08.906Z,1792.00
2018-06-08T06:46:08.861Z,1780.00
2018-06-08T06:47:08.450Z,1764.00
2018-06-08T06:48:08.818Z,1748.00
2018-06-08T06:49:08.478Z,1740.00
2018-06-08T06:50:08.528Z,1732.00
2018-06-08T06:51:08.005Z,1728.00
2018-06-08T06:52:08.032Z,1728.00
2018-06-08T06:53:08.849Z,1728.00
2018-06-08T06:54:08.813Z,1728.00
2018-06-08T06:55:08.560Z,1732.00
2018-06-08T06:56:08.625Z,1736.00
2018-06-08T06:57:08.312Z,1744.00
2018-06-08T06:58:08.358Z,1752.00
2018-06-08T06:59:08.779Z,1764.00
2018-06-08T07:00:08.977Z,1776.00
2018-06-08T07:01:08.810Z,1780.00
2018-06-08T07:02:08.818Z,1792.00
2018-06-08T07:03:08.572Z,1796.00
2018-06-08T07:04:08.564Z,1808.00
2018-06-08T07:05:08.504Z,1816.00
2018-06-08T07:06:08.510Z,1824.00
2018-06-08T07:07:08.549Z,1832.00
2018-06-08T07:08:08.468Z,1828.00
2018-06-08T07:09:08.489Z,1832.00
2018-06-08T07:10:08.557Z,1840.00
2018-06-08T07:11:08.542Z,1848.00
2018-06-08T07:12:10.541Z,1864.00
2018-06-08T07:13:08.800Z,1872.00
2018-06-08T07:14:08.523Z,1888.00
2018-06-08T07:15:09.011Z,1896.00
2018-06-08T07:16:08.805Z,1912.00
2018-06-08T07:17:08.063Z,1924.00
2018-06-08T07:18:08.603Z,1928.00
2018-06-08T07:19:08.046Z,1932.00
2018-06-08T07:20:08.007Z,1936.00
2018-06-08T07:21:08.532Z,1944.00
2018-06-08T07:22:08.801Z,1948.00
2018-06-08T07:23:07.801Z,1952.00
2018-06-08T07:24:08.536Z,1964.00
2018-06-08T07:25:08.895Z,1976.00
2018-06-08T07:26:08.517Z,1992.00
2018-06-08T07:27:08.470Z,2016.00
2018-06-08T07:28:08.569Z,2048.00
2018-06-08T07:29:08.557Z,2084.00
2018-06-08T07:30:08.072Z,2132.00
2018-06-08T07:31:08.306Z,2180.00
2018-06-08T07:32:08.265Z,2244.00
2018-06-08T07:33:08.565Z,2296.00
2018-06-08T07:34:08.333Z,2360.00
2018-06-08T07:35:08.449Z,2420.00
2018-06-08T07:36:07.972Z,2476.00
2018-06-08T07:37:08.493Z,2532.00
2018-06-08T07:38:08.956Z,2588.00
2018-06-08T07:39:13.554Z,2648.00
2018-06-08T07:40:08.328Z,2708.00
2018-06-08T07:41:08.981Z,2772.00
2018-06-08T07:42:08.833Z,2816.00
2018-06-08T07:43:08.472Z,2856.00
2018-06-08T07:44:07.821Z,2892.00
2018-06-08T07:45:10.110Z,2920.00
2018-06-08T07:46:08.473Z,2936.00
2018-06-08T07:47:08.472Z,2948.00
2018-06-08T07:48:08.474Z,2956.00
2018-06-08T07:49:08.481Z,2976.00
2018-06-08T07:50:08.929Z,2992.00
2018-06-08T07:51:08.522Z,3004.00
2018-06-08T07:52:07.965Z,3012.00
2018-06-08T07:53:08.879Z,3024.00
2018-06-08T07:54:08.825Z,3028.00
2018-06-08T07:55:08.418Z,3032.00
2018-06-08T07:56:08.506Z,3020.00
2018-06-08T07:57:08.463Z,3020.00
2018-06-08T07:58:08.826Z,3044.00
2018-06-08T07:59:08.999Z,3072.00
2018-06-08T08:00:08.233Z,3100.00
2018-06-08T08:01:08.540Z,3128.00
2018-06-08T08:02:08.860Z,3168.00
2018-06-08T08:03:08.859Z,3208.00
2018-06-08T08:04:07.896Z,3212.00
2018-06-08T08:05:08.593Z,3184.00
2018-06-08T08:06:08.401Z,3136.00
2018-06-08T08:07:08.574Z,3100.00
2018-06-08T08:08:07.871Z,3072.00
2018-06-08T08:09:08.843Z,3056.00
2018-06-08T08:10:08.508Z,3056.00
2018-06-08T08:11:07.989Z,3060.00
2018-06-08T08:12:09.000Z,3068.00
2018-06-08T08:13:08.542Z,3076.00
2018-06-08T08:14:08.991Z,3084.00
2018-06-08T08:15:08.371Z,3100.00
2018-06-08T08:16:08.901Z,3128.00
2018-06-08T08:17:08.866Z,3168.00
2018-06-08T08:18:09.018Z,3212.00
2018-06-08T08:19:08.491Z,3244.00
2018-06-08T08:20:08.587Z,3256.00
2018-06-08T08:21:08.391Z,3236.00
2018-06-08T08:22:08.819Z,3204.00
2018-06-08T08:23:08.458Z,3172.00
2018-06-08T08:24:08.556Z,3156.00
2018-06-08T08:25:08.704Z,3148.00
2018-06-08T08:26:09.057Z,3148.00
2018-06-08T08:27:08.130Z,3152.00
2018-06-08T08:28:08.364Z,3164.00
2018-06-08T08:29:08.992Z,3176.00
2018-06-08T08:30:08.529Z,3184.00
2018-06-08T08:31:08.975Z,3192.00
2018-06-08T08:32:08.566Z,3196.00
2018-06-08T08:33:08.753Z,3212.00
2018-06-08T08:34:08.596Z,3228.00
2018-06-08T08:35:08.842Z,3240.00
2018-06-08T08:36:07.983Z,3240.00
2018-06-08T08:37:08.553Z,3248.00
2018-06-08T08:38:08.832Z,3260.00
2018-06-08T08:39:08.110Z,3280.00
2018-06-08T08:40:09.501Z,3284.00
2018-06-08T08:41:10.738Z,3276.00
2018-06-08T08:42:08.085Z,3272.00
2018-06-08T08:43:10.858Z,3288.00
2018-06-08T08:44:08.861Z,3332.00
2018-06-08T08:45:08.546Z,3396.00
2018-06-08T08:46:09.055Z,3456.00
2018-06-08T08:47:08.065Z,3500.00
2018-06-08T08:48:08.501Z,3544.00
2018-06-08T08:49:08.457Z,3568.00
2018-06-08T08:50:08.921Z,3588.00
2018-06-08T08:51:08.851Z,3624.00
2018-06-08T08:52:08.582Z,3676.00
2018-06-08T08:53:08.162Z,3748.00
2018-06-08T08:54:09.166Z,3812.00
2018-06-08T08:55:08.554Z,3852.00
2018-06-08T08:56:08.710Z,3856.00
2018-06-08T08:57:08.594Z,3840.00
2018-06-08T08:58:08.510Z,3800.00
2018-06-08T08:59:10.169Z,3752.00
2018-06-08T09:00:08.755Z,3692.00
2018-06-08T09:01:08.482Z,3612.00
2018-06-08T09:02:09.111Z,3508.00
2018-06-08T09:03:08.590Z,3372.00
2018-06-08T09:04:08.808Z,3248.00
2018-06-08T09:05:08.579Z,3112.00
2018-06-08T09:06:08.169Z,3012.00
2018-06-08T09:07:09.055Z,2944.00
2018-06-08T09:08:08.568Z,2924.00
2018-06-08T09:09:08.573Z,2920.00
2018-06-08T09:10:10.516Z,2944.00
2018-06-08T09:11:14.609Z,2984.00
2018-06-08T09:12:14.895Z,3044.00
2018-06-08T09:13:10.858Z,3120.00
2018-06-08T09:14:08.946Z,3208.00
2018-06-08T09:15:08.756Z,3340.00
2018-06-08T09:16:09.093Z,3508.00
2018-06-08T09:17:08.447Z,3676.00
2018-06-08T09:18:08.886Z,3820.00
2018-06-08T09:19:08.883Z,3936.00
2018-06-08T09:20:08.467Z,4060.00
2018-06-08T09:21:09.085Z,4168.00
2018-06-08T09:22:08.523Z,4248.00
2018-06-08T09:23:08.582Z,4320.00
2018-06-08T09:24:08.524Z,4356.00
2018-06-08T09:25:08.875Z,4312.00
2018-06-08T09:26:09.102Z,4216.00
2018-06-08T09:27:09.074Z,4108.00
2018-06-08T09:28:09.022Z,4080.00
2018-06-08T09:29:09.100Z,4112.00
2018-06-08T09:30:09.073Z,4156.00
2018-06-08T09:31:08.563Z,4204.00
2018-06-08T09:32:08.594Z,4284.00
2018-06-08T09:33:08.913Z,4376.00
2018-06-08T09:34:09.219Z,4452.00
2018-06-08T09:35:09.030Z,4492.00
2018-06-08T09:36:09.063Z,4492.00
2018-06-08T09:37:09.097Z,4428.00
2018-06-08T09:38:08.589Z,4308.00
2018-06-08T09:39:08.789Z,4152.00
2018-06-08T09:40:08.574Z,3968.00
2018-06-08T09:41:09.030Z,3828.00
2018-06-08T09:42:08.832Z,3728.00
2018-06-08T09:43:09.080Z,3656.00
2018-06-08T09:44:09.375Z,3588.00
2018-06-08T09:45:08.830Z,3532.00
2018-06-08T09:46:08.908Z,3468.00
2018-06-08T09:47:09.387Z,3420.00
2018-06-08T09:48:08.639Z,3376.00
2018-06-08T09:49:08.890Z,3356.00
2018-06-08T09:50:09.371Z,3352.00
2018-06-08T09:51:08.586Z,3372.00
2018-06-08T09:52:09.413Z,3412.00
2018-06-08T09:53:08.855Z,3480.00
2018-06-08T09:54:08.899Z,3572.00
2018-06-08T09:55:09.561Z,3664.00
2018-06-08T09:56:09.005Z,3760.00
2018-06-08T09:57:08.833Z,3876.00
2018-06-08T09:58:09.035Z,4000.00
2018-06-08T09:59:09.419Z,4140.00
2018-06-08T10:00:09.362Z,4312.00
2018-06-08T10:01:09.112Z,4476.00
2018-06-08T10:02:09.152Z,4596.00
2018-06-08T10:03:09.042Z,4624.00
2018-06-08T10:04:09.461Z,4528.00
2018-06-08T10:05:09.120Z,4332.00
2018-06-08T10:06:08.638Z,4080.00
2018-06-08T10:07:09.083Z,3804.00
2018-06-08T10:08:09.046Z,3560.00
2018-06-08T10:09:09.116Z,3368.00
2018-06-08T10:10:09.039Z,3252.00
2018-06-08T10:11:09.441Z,3188.00
2018-06-08T10:12:08.404Z,3120.00
2018-06-08T10:13:09.381Z,3044.00
2018-06-08T10:14:09.139Z,2940.00
2018-06-08T10:15:09.291Z,2792.00
2018-06-08T10:16:08.541Z,2624.00
2018-06-08T10:17:08.792Z,2484.00
2018-06-08T10:18:09.114Z,2380.00
2018-06-08T10:20:09.131Z,2256.00
2018-06-08T10:21:09.563Z,2196.00
2018-06-08T10:22:08.589Z,2156.00
2018-06-08T10:23:09.482Z,2116.00
2018-06-08T10:24:09.089Z,2088.00
2018-06-08T10:25:09.119Z,2072.00
2018-06-08T10:26:08.460Z,2060.00
2018-06-08T10:27:09.380Z,2040.00
2018-06-08T10:28:08.608Z,2024.00
2018-06-08T10:29:08.952Z,2008.00
2018-06-08T10:30:09.394Z,1988.00
2018-06-08T10:31:09.392Z,1960.00
2018-06-08T10:32:09.592Z,1932.00
2018-06-08T10:33:09.405Z,1908.00
2018-06-08T10:34:08.895Z,1892.00
2018-06-08T10:35:08.827Z,1876.00
2018-06-08T10:36:09.143Z,1860.00
2018-06-08T10:37:09.005Z,1828.00
2018-06-08T10:38:09.140Z,1776.00
2018-06-08T10:39:09.393Z,1716.00
2018-06-08T10:40:09.177Z,1636.00
2018-06-08T10:41:09.052Z,1552.00
2018-06-08T10:42:09.574Z,1476.00
2018-06-08T10:43:08.472Z,1400.00
2018-06-08T10:44:09.419Z,1328.00
2018-06-08T10:45:09.425Z,1264.00
2018-06-08T10:46:08.801Z,1208.00
2018-06-08T10:47:09.137Z,1164.00
2018-06-08T10:48:09.393Z,1132.00
2018-06-08T10:49:09.058Z,1100.00
2018-06-08T10:50:11.060Z,1064.00
2018-06-08T10:51:09.131Z,1020.00
2018-06-08T10:52:09.764Z,980.00
2018-06-08T10:53:08.836Z,940.00
2018-06-08T10:54:09.035Z,900.00
2018-06-08T10:55:09.493Z,868.00
2018-06-08T10:56:08.973Z,832.00
2018-06-08T10:57:09.428Z,808.00
2018-06-08T10:58:08.565Z,788.00
2018-06-08T10:59:09.064Z,764.00
2018-06-08T11:00:09.168Z,756.00
2018-06-08T11:01:08.607Z,740.00
2018-06-08T11:02:09.409Z,732.00
2018-06-08T11:03:09.707Z,724.00
2018-06-08T11:04:09.515Z,720.00
2018-06-08T11:05:08.874Z,716.00
2018-06-08T11:06:09.067Z,712.00
2018-06-08T11:07:09.065Z,720.00
2018-06-08T11:08:09.566Z,724.00
2018-06-08T11:09:09.168Z,728.00
2018-06-08T11:10:09.005Z,732.00
2018-06-08T11:11:09.100Z,728.00
2018-06-08T11:12:08.960Z,724.00
2018-06-08T11:13:08.891Z,716.00
2018-06-08T11:14:09.143Z,704.00
2018-06-08T11:15:09.437Z,684.00
2018-06-08T11:16:09.851Z,660.00
2018-06-08T11:17:09.090Z,640.00
2018-06-08T11:18:09.403Z,628.00
2018-06-08T11:19:09.066Z,604.00
2018-06-08T11:20:09.573Z,588.00
2018-06-08T11:21:08.916Z,568.00
2018-06-08T11:22:09.503Z,556.00
2018-06-08T11:23:08.864Z,544.00
2018-06-08T11:24:08.900Z,532.00
2018-06-08T11:25:09.112Z,524.00
2018-06-08T11:26:10.816Z,512.00
2018-06-08T11:27:08.990Z,492.00
2018-06-08T11:28:09.419Z,472.00
2018-06-08T11:29:09.137Z,460.00
2018-06-08T11:30:09.458Z,436.00
2018-06-08T11:31:09.218Z,420.00
2018-06-08T11:32:09.368Z,396.00
2018-06-08T11:33:08.880Z,388.00
2018-06-08T11:34:12.652Z,384.00
2018-06-08T11:35:08.958Z,376.00
2018-06-08T11:36:09.731Z,376.00
2018-06-08T11:37:10.934Z,372.00
2018-06-08T11:38:10.097Z,376.00
2018-06-08T11:39:10.979Z,376.00
2018-06-08T11:40:09.479Z,388.00
2018-06-08T11:41:09.541Z,408.00
2018-06-08T11:42:09.356Z,436.00
2018-06-08T11:43:09.217Z,456.00
2018-06-08T11:44:09.661Z,468.00
2018-06-08T11:45:08.948Z,472.00
2018-06-08T11:46:28.546Z,488.00
2018-06-08T11:47:08.956Z,488.00
2018-06-08T11:48:07.524Z,492.00
2018-06-08T11:49:08.899Z,496.00
2018-06-08T11:50:08.552Z,512.00
2018-06-08T11:51:10.829Z,512.00
2018-06-08T11:52:09.119Z,536.00
2018-06-08T11:53:08.684Z,560.00
2018-06-08T11:54:08.598Z,576.00
2018-06-08T11:55:09.023Z,592.00
2018-06-08T11:56:08.662Z,600.00
2018-06-08T11:57:09.162Z,592.00
2018-06-08T11:58:09.108Z,596.00
2018-06-08T11:59:08.662Z,608.00
2018-06-08T12:00:09.275Z,616.00
2018-06-08T12:01:10.770Z,628.00
2018-06-08T12:02:08.969Z,656.00
2018-06-08T12:03:09.022Z,688.00
2018-06-08T12:04:08.652Z,712.00
2018-06-08T12:05:09.526Z,764.00
2018-06-08T12:07:40.699Z,1028.00
2018-06-08T12:08:42.068Z,1144.00
2018-06-08T12:10:37.594Z,1400.00
2018-06-08T12:11:36.963Z,1500.00
2018-06-08T12:13:30.573Z,1524.00
2018-06-08T12:14:30.889Z,1504.00
2018-06-08T12:16:24.722Z,1512.00
2018-06-08T12:17:25.987Z,1508.00
2018-06-08T12:19:18.609Z,1580.00
2018-06-08T12:20:18.671Z,1592.00
2018-06-08T12:22:13.393Z,1636.00
2018-06-08T12:23:13.404Z,1672.00
2018-06-08T12:24:13.596Z,1708.00
2018-06-08T12:25:13.896Z,1764.00
2018-06-08T12:26:13.880Z,1816.00
2018-06-08T12:27:13.427Z,1864.00
2018-06-08T12:28:14.042Z,1924.00
2018-06-08T12:29:13.280Z,1972.00
2018-06-08T12:30:13.101Z,2032.00
2018-06-08T12:31:14.077Z,2080.00
2018-06-08T12:32:13.403Z,2148.00
2018-06-08T12:33:13.615Z,2216.00
2018-06-08T12:34:13.380Z,2272.00
2018-06-08T12:35:13.385Z,2332.00
2018-06-08T12:36:13.622Z,2388.00
2018-06-08T12:37:13.536Z,2440.00